Turbat Weather



Turbat's Current Weather

Temprature 39.26o broken clouds

broken clouds

Rain: 0 %

Min Temprature39.26o
Max Temprature39.26o
Humidity35
Wind Speed5.19 m/h
Sun Rise06:09:35
Sun Set19:38:45
Current Time: 24-Jul-2021 15:40:14
Lat/Lon: 26.0023, 63.044




Turbat's Geo Location



Turbat's Weather Forecast

Time Overall Temp Min Temp Max Temp Humidity Wind Speed Rain
24-Jul-2021 (Sat)
17:00:00 broken clouds 39.570 39.570 39.570 34 6.2 m/h 0 %
20:00:00 broken clouds 37.310 32.790 37.310 42 5.69 m/h 0 %
23:00:00 broken clouds 33.240 30.080 33.240 58 3.88 m/h 0 %
25-Jul-2021 (Sun)
02:00:00 scattered clouds 28.810 28.810 28.810 76 3.58 m/h 0 %
05:00:00 scattered clouds 27.930 27.930 27.930 79 1.48 m/h 0 %
08:00:00 few clouds 28.770 28.770 28.770 75 2.23 m/h 0 %
11:00:00 few clouds 33.150 33.150 33.150 57 3.03 m/h 0 %
14:00:00 overcast clouds 38.110 38.110 38.110 40 4.47 m/h 0 %
17:00:00 scattered clouds 39.640 39.640 39.640 35 6.57 m/h 0 %
20:00:00 few clouds 32.520 32.520 32.520 62 5.67 m/h 0 %
23:00:00 scattered clouds 31.040 31.040 31.040 68 2.68 m/h 0 %
26-Jul-2021 (Mon)
02:00:00 overcast clouds 30.390 30.390 30.390 71 2.83 m/h 0 %
05:00:00 overcast clouds 29.470 29.470 29.470 75 2 m/h 0 %
08:00:00 scattered clouds 29.590 29.590 29.590 75 2.91 m/h 0 %
11:00:00 scattered clouds 33.660 33.660 33.660 57 3.62 m/h 0 %
14:00:00 broken clouds 38.400 38.400 38.400 39 3.83 m/h 0 %
17:00:00 broken clouds 39.790 39.790 39.790 35 6.2 m/h 0 %
20:00:00 scattered clouds 33.950 33.950 33.950 56 5.16 m/h 0 %
23:00:00 broken clouds 32.200 32.200 32.200 62 4.06 m/h 0 %
27-Jul-2021 (Tue)
02:00:00 overcast clouds 29.940 29.940 29.940 73 2.6 m/h 0 %
05:00:00 overcast clouds 29.740 29.740 29.740 74 2.09 m/h 0 %
08:00:00 broken clouds 29.850 29.850 29.850 74 2.45 m/h 0 %
11:00:00 broken clouds 34.330 34.330 34.330 54 2.6 m/h 0 %
14:00:00 broken clouds 39.470 39.470 39.470 36 3.57 m/h 0 %
17:00:00 broken clouds 40.970 40.970 40.970 32 7.23 m/h 0 %
20:00:00 overcast clouds 33.510 33.510 33.510 58 5.63 m/h 0 %
23:00:00 overcast clouds 31.490 31.490 31.490 64 3.5 m/h 0 %
28-Jul-2021 (Wed)
02:00:00 overcast clouds 30.770 30.770 30.770 66 2.07 m/h 0 %
05:00:00 overcast clouds 29.610 29.610 29.610 75 5.1 m/h 0 %
08:00:00 overcast clouds 29.540 29.540 29.540 76 3.82 m/h 0 %
11:00:00 overcast clouds 33.410 33.410 33.410 57 3.73 m/h 0 %
14:00:00 overcast clouds 39.620 39.620 39.620 33 4.71 m/h 0 %
17:00:00 overcast clouds 40.750 40.750 40.750 30 7.58 m/h 0 %
20:00:00 overcast clouds 33.850 33.850 33.850 54 7.17 m/h 0 %
23:00:00 overcast clouds 30.740 30.740 30.740 68 2.69 m/h 0 %
29-Jul-2021 (Thu)
02:00:00 overcast clouds 30.410 30.410 30.410 69 1.33 m/h 0 %
05:00:00 overcast clouds 29.860 29.860 29.860 73 1.16 m/h 0 %
08:00:00 overcast clouds 30.550 30.550 30.550 70 1.68 m/h 0 %
11:00:00 overcast clouds 35.560 35.560 35.560 47 3.87 m/h 0 %
14:00:00 overcast clouds 40.350 40.350 40.350 29 4.96 m/h 0 %

Famous Cities (60)